createdAt,value
2022-12-04T00:00:34.629Z,29.88
2022-12-04T00:03:01.907Z,29.70
2022-12-04T00:05:29.188Z,29.90
2022-12-04T00:07:56.748Z,35.05
2022-12-04T00:10:24.016Z,29.13
2022-12-04T00:12:51.281Z,29.42
2022-12-04T00:15:26.668Z,33.67
2022-12-04T00:17:54.641Z,31.33
2022-12-04T00:20:23.121Z,35.03
2022-12-04T00:22:50.449Z,29.30
2022-12-04T00:25:17.679Z,31.23
2022-12-04T00:27:44.998Z,31.13
2022-12-04T00:30:12.580Z,32.17
2022-12-04T00:32:39.915Z,35.30
2022-12-04T00:35:07.582Z,31.92
2022-12-04T00:37:34.983Z,31.90
2022-12-04T00:40:02.232Z,33.20
2022-12-04T00:42:29.485Z,31.85
2022-12-04T00:44:56.736Z,32.05
2022-12-04T00:47:23.963Z,33.97
2022-12-04T00:49:51.216Z,33.55
2022-12-04T00:52:18.497Z,32.53
2022-12-04T00:54:45.850Z,29.05
2022-12-04T00:57:13.187Z,33.30
2022-12-04T00:59:40.527Z,34.92
2022-12-04T01:02:07.778Z,30.77
2022-12-04T01:04:35.064Z,34.25
2022-12-04T01:07:05.196Z,31.73
2022-12-04T01:09:33.318Z,32.60
2022-12-04T01:12:00.556Z,30.40
2022-12-04T01:14:28.097Z,30.20
2022-12-04T01:16:55.389Z,34.55
2022-12-04T01:19:22.676Z,32.20
2022-12-04T01:21:50.233Z,32.47
2022-12-04T01:24:17.538Z,33.78
2022-12-04T01:26:44.727Z,34.15
2022-12-04T01:29:12.025Z,32.55
2022-12-04T01:31:39.518Z,32.13
2022-12-04T01:34:06.890Z,33.33
2022-12-04T01:36:34.090Z,33.88
2022-12-04T01:39:01.464Z,34.03
2022-12-04T01:41:30.436Z,34.88
2022-12-04T01:44:16.074Z,36.90
2022-12-04T01:46:56.467Z,36.75
2022-12-04T01:49:49.748Z,35.42
2022-12-04T01:52:24.105Z,34.92
2022-12-04T01:54:54.778Z,35.45
2022-12-04T01:57:24.313Z,35.03
2022-12-04T02:00:02.333Z,36.47
2022-12-04T02:02:40.564Z,37.30
2022-12-04T02:05:11.498Z,38.75
2022-12-04T02:07:39.685Z,36.38
2022-12-04T02:10:08.959Z,39.95
2022-12-04T02:12:43.591Z,38.38
2022-12-04T02:15:27.733Z,37.85
2022-12-04T02:18:01.365Z,41.30
2022-12-04T02:20:50.463Z,38.75
2022-12-04T02:23:42.103Z,39.90
2022-12-04T02:26:28.693Z,38.95
2022-12-04T02:29:32.743Z,38.85
2022-12-04T02:32:20.154Z,36.15
2022-12-04T02:35:16.166Z,38.40
2022-12-04T02:37:46.530Z,39.78
2022-12-04T02:40:25.862Z,39.75
2022-12-04T02:42:56.134Z,43.13
2022-12-04T02:45:48.759Z,38.30
2022-12-04T02:48:19.869Z,41.72
2022-12-04T02:50:50.078Z,37.55
2022-12-04T02:53:20.081Z,39.13
2022-12-04T02:58:26.404Z,40.33
2022-12-04T03:00:55.176Z,39.17
2022-12-04T03:03:25.280Z,40.83
2022-12-04T03:05:56.929Z,38.88
2022-12-04T03:08:27.653Z,37.45
2022-12-04T03:10:58.231Z,40.17
2022-12-04T03:13:48.679Z,40.72
2022-12-04T03:16:19.657Z,38.38
2022-12-04T03:18:50.338Z,39.83
2022-12-04T03:21:20.685Z,37.83
2022-12-04T03:23:51.945Z,41.95
2022-12-04T03:26:37.341Z,38.47
2022-12-04T03:29:12.346Z,40.13
2022-12-04T03:31:44.050Z,38.28
2022-12-04T03:34:13.381Z,38.65
2022-12-04T03:36:47.695Z,42.92
2022-12-04T03:39:19.313Z,41.42
2022-12-04T03:42:21.889Z,38.33
2022-12-04T03:45:04.762Z,41.25
2022-12-04T03:47:38.617Z,39.42
2022-12-04T03:50:11.679Z,39.45
2022-12-04T03:53:08.737Z,36.58
2022-12-04T03:55:48.092Z,37.20
2022-12-04T03:58:20.105Z,38.42
2022-12-04T04:00:50.002Z,37.70
2022-12-04T04:03:30.082Z,36.50
2022-12-04T04:06:02.214Z,39.13
2022-12-04T04:08:34.982Z,39.28
2022-12-04T04:11:11.508Z,40.85
2022-12-04T04:14:03.610Z,37.78
2022-12-04T04:16:53.835Z,36.53
2022-12-04T04:19:40.725Z,36.13
2022-12-04T04:22:28.541Z,34.88
2022-12-04T04:24:59.988Z,36.33
2022-12-04T04:27:27.264Z,35.88
2022-12-04T04:29:55.040Z,38.35
2022-12-04T04:32:43.129Z,35.53
2022-12-04T04:35:21.586Z,36.17
2022-12-04T04:37:58.811Z,40.42
2022-12-04T04:40:30.807Z,36.97
2022-12-04T04:43:27.315Z,38.65
2022-12-04T04:45:59.096Z,38.75
2022-12-04T04:48:30.389Z,38.92
2022-12-04T04:50:58.812Z,38.50
2022-12-04T04:53:30.953Z,38.60
2022-12-04T04:55:58.823Z,38.47
2022-12-04T04:58:26.136Z,36.90
2022-12-04T05:01:14.149Z,36.42
2022-12-04T05:03:42.510Z,38.63
2022-12-04T05:06:09.805Z,39.95
2022-12-04T05:08:37.134Z,36.83
2022-12-04T05:11:04.638Z,38.88
2022-12-04T05:13:32.866Z,39.42
2022-12-04T05:16:02.320Z,40.08
2022-12-04T05:18:30.269Z,39.75
2022-12-04T05:20:58.052Z,37.08
2022-12-04T05:23:25.720Z,38.38
2022-12-04T05:26:00.354Z,36.33
2022-12-04T05:28:27.940Z,36.80
2022-12-04T05:30:57.277Z,40.55
2022-12-04T05:33:24.682Z,40.67
2022-12-04T05:36:01.953Z,38.33
2022-12-04T05:38:30.015Z,41.42
2022-12-04T05:41:01.814Z,41.45
2022-12-04T05:43:29.147Z,42.85
2022-12-04T05:46:04.254Z,41.38
2022-12-04T05:48:31.714Z,38.75
2022-12-04T05:50:59.217Z,40.35
2022-12-04T05:53:26.434Z,46.05
2022-12-04T05:55:57.510Z,39.92
2022-12-04T05:58:25.314Z,43.05
2022-12-04T06:00:52.785Z,41.30
2022-12-04T06:03:20.220Z,41.20
2022-12-04T06:05:47.576Z,39.83
2022-12-04T06:08:15.186Z,40.75
2022-12-04T06:10:42.817Z,40.97
2022-12-04T06:13:10.112Z,41.92
2022-12-04T06:15:40.784Z,40.60
2022-12-04T06:18:08.090Z,44.00
2022-12-04T06:20:35.417Z,42.03
2022-12-04T06:23:02.764Z,45.33
2022-12-04T06:25:30.042Z,39.95
2022-12-04T06:27:57.461Z,43.08
2022-12-04T06:30:24.689Z,43.60
2022-12-04T06:32:51.923Z,42.03
2022-12-04T06:35:19.125Z,38.33
2022-12-04T06:37:46.389Z,40.50
2022-12-04T06:40:13.693Z,43.08
2022-12-04T06:42:41.056Z,41.85
2022-12-04T06:45:09.451Z,42.00
2022-12-04T06:47:36.727Z,46.30
2022-12-04T06:50:04.859Z,43.08
2022-12-04T06:52:34.035Z,40.33
2022-12-04T06:55:01.288Z,40.07
2022-12-04T06:57:28.684Z,44.17
2022-12-04T06:59:56.067Z,42.60
2022-12-04T07:02:23.552Z,43.08
2022-12-04T07:04:56.037Z,42.08
2022-12-04T07:07:23.566Z,41.33
2022-12-04T07:09:50.841Z,46.60
2022-12-04T07:12:18.234Z,40.33
2022-12-04T07:14:45.536Z,44.42
2022-12-04T07:17:12.914Z,46.25
2022-12-04T07:19:40.195Z,41.70
2022-12-04T07:22:08.915Z,39.72
2022-12-04T07:24:37.548Z,45.55
2022-12-04T07:27:04.905Z,46.38
2022-12-04T07:29:32.147Z,43.67
2022-12-04T07:31:59.495Z,45.17
2022-12-04T07:34:26.761Z,44.97
2022-12-04T07:36:54.003Z,48.33
2022-12-04T07:39:21.247Z,41.92
2022-12-04T07:41:48.525Z,42.10
2022-12-04T07:44:15.912Z,45.80
2022-12-04T07:46:43.126Z,47.25
2022-12-04T07:49:11.557Z,47.45
2022-12-04T07:51:38.797Z,48.03
2022-12-04T07:54:06.900Z,49.67
2022-12-04T07:56:34.623Z,47.83
2022-12-04T07:59:02.263Z,50.65
2022-12-04T08:01:29.944Z,49.83
2022-12-04T08:03:58.855Z,52.78
2022-12-04T08:06:28.056Z,49.22
2022-12-04T08:08:55.333Z,47.30
2022-12-04T08:11:24.564Z,48.03
2022-12-04T08:14:02.600Z,50.15
2022-12-04T08:16:31.603Z,51.90
2022-12-04T08:18:59.778Z,51.55
2022-12-04T08:21:29.332Z,52.78
2022-12-04T08:23:58.135Z,54.63
2022-12-04T08:26:29.057Z,57.17
2022-12-04T08:28:57.258Z,52.30
2022-12-04T08:31:26.736Z,54.92
2022-12-04T08:33:57.614Z,47.95
2022-12-04T08:36:25.716Z,50.17
2022-12-04T08:38:52.965Z,48.58
2022-12-04T08:41:23.942Z,49.17
2022-12-04T08:43:55.922Z,54.22
2022-12-04T08:46:25.067Z,49.65
2022-12-04T08:48:52.876Z,53.13
2022-12-04T08:51:22.426Z,48.50
2022-12-04T08:53:58.056Z,50.97
2022-12-04T08:56:26.175Z,55.65
2022-12-04T08:58:53.651Z,52.05
2022-12-04T09:01:21.131Z,54.90
2022-12-04T09:03:48.387Z,53.30
2022-12-04T09:06:16.249Z,54.05
2022-12-04T09:08:44.521Z,55.45
2022-12-04T09:11:17.608Z,55.20
2022-12-04T09:13:45.555Z,50.45
2022-12-04T09:16:16.040Z,53.95
2022-12-04T09:18:44.087Z,53.33
2022-12-04T09:21:13.197Z,53.72
2022-12-04T09:23:40.897Z,56.57
2022-12-04T09:26:23.087Z,57.50
2022-12-04T09:28:51.115Z,53.70
2022-12-04T09:31:19.245Z,51.92
2022-12-04T09:33:46.812Z,50.42
2022-12-04T09:36:16.845Z,52.63
2022-12-04T09:41:34.059Z,55.70
2022-12-04T09:44:06.821Z,52.07
2022-12-04T09:46:41.315Z,51.40
2022-12-04T09:49:20.420Z,51.05
2022-12-04T09:51:47.787Z,52.50
2022-12-04T09:54:18.535Z,52.78
2022-12-04T09:56:54.025Z,52.55
2022-12-04T09:59:24.565Z,52.17
2022-12-04T10:01:56.384Z,54.35
2022-12-04T10:04:23.825Z,49.47
2022-12-04T10:07:09.599Z,52.58
2022-12-04T10:09:44.779Z,50.95
2022-12-04T10:12:21.489Z,56.38
2022-12-04T10:14:51.813Z,50.60
2022-12-04T10:17:34.332Z,50.22
2022-12-04T10:20:15.246Z,51.35
2022-12-04T10:23:16.644Z,49.05
2022-12-04T10:25:43.858Z,50.10
2022-12-04T10:28:25.899Z,51.38
2022-12-04T10:30:55.750Z,51.70
2022-12-04T10:35:53.023Z,54.33
2022-12-04T10:38:25.773Z,51.28
2022-12-04T10:41:00.764Z,51.90
2022-12-04T10:43:33.755Z,54.28
2022-12-04T10:46:01.145Z,57.33
2022-12-04T10:48:38.408Z,50.17
2022-12-04T10:51:05.931Z,53.38
2022-12-04T10:53:36.131Z,51.78
2022-12-04T10:56:15.931Z,52.10
2022-12-04T10:58:43.199Z,51.63
2022-12-04T11:01:15.628Z,52.13
2022-12-04T11:03:44.705Z,53.83
2022-12-04T11:06:14.434Z,52.50
2022-12-04T11:08:44.845Z,50.28
2022-12-04T11:11:14.717Z,50.33
2022-12-04T11:13:42.590Z,51.42
2022-12-04T11:16:33.245Z,51.55
2022-12-04T11:19:00.614Z,53.33
2022-12-04T11:21:30.053Z,53.22
2022-12-04T11:23:58.558Z,51.10
2022-12-04T11:26:37.666Z,50.65
2022-12-04T11:29:06.095Z,53.17
2022-12-04T11:31:33.627Z,54.72
2022-12-04T11:34:04.901Z,48.78
2022-12-04T11:36:40.561Z,53.30
2022-12-04T11:39:20.347Z,51.85
2022-12-04T11:41:47.719Z,50.47
2022-12-04T11:44:49.080Z,46.60
2022-12-04T11:47:18.574Z,52.75
2022-12-04T11:50:00.373Z,49.90
2022-12-04T11:52:49.635Z,52.83
2022-12-04T11:55:29.668Z,51.73
2022-12-04T11:58:45.055Z,49.30
2022-12-04T12:01:30.454Z,50.63
2022-12-04T12:04:29.058Z,50.88
2022-12-04T12:07:24.547Z,49.97
2022-12-04T12:09:58.208Z,51.30
2022-12-04T12:12:51.790Z,52.47
2022-12-04T12:15:50.263Z,49.60
2022-12-04T12:18:55.452Z,49.30
2022-12-04T12:21:27.638Z,49.85
2022-12-04T12:24:33.377Z,54.42
2022-12-04T12:27:54.653Z,51.65
2022-12-04T12:30:23.318Z,48.83
2022-12-04T12:33:08.058Z,49.88
2022-12-04T12:35:46.010Z,45.63
2022-12-04T12:38:17.785Z,55.03
2022-12-04T12:40:48.187Z,48.75
2022-12-04T12:43:32.658Z,45.80
2022-12-04T12:46:22.926Z,48.60
2022-12-04T12:49:02.934Z,48.97
2022-12-04T12:54:33.333Z,55.05
2022-12-04T12:57:11.220Z,53.72
2022-12-04T12:59:42.467Z,48.70
2022-12-04T13:02:27.769Z,50.05
2022-12-04T13:04:58.258Z,51.15
2022-12-04T13:07:47.498Z,53.25
2022-12-04T13:10:28.605Z,51.72
2022-12-04T13:13:18.081Z,52.97
2022-12-04T13:16:05.265Z,53.85
2022-12-04T13:19:11.309Z,58.10
2022-12-04T13:21:46.186Z,59.05
2022-12-04T13:24:22.553Z,58.55
2022-12-04T13:27:29.731Z,59.20
2022-12-04T13:30:19.361Z,59.88
2022-12-04T13:33:18.397Z,56.17
2022-12-04T13:36:10.280Z,57.53
2022-12-04T13:38:46.525Z,55.92
2022-12-04T13:41:24.444Z,53.78
2022-12-04T13:43:53.115Z,55.85
2022-12-04T13:46:34.536Z,54.00
2022-12-04T13:49:25.539Z,55.58
2022-12-04T13:51:53.114Z,57.70
2022-12-04T13:54:22.768Z,55.78
2022-12-04T13:56:52.911Z,59.45
2022-12-04T13:59:32.138Z,56.25
2022-12-04T14:02:07.717Z,62.90
2022-12-04T14:04:46.979Z,58.67
2022-12-04T14:07:35.178Z,58.35
2022-12-04T14:10:05.971Z,55.55
2022-12-04T14:12:36.882Z,56.28
2022-12-04T14:15:19.391Z,58.15
2022-12-04T14:18:11.693Z,53.72
2022-12-04T14:20:40.660Z,55.35
2022-12-04T14:23:19.923Z,57.75
2022-12-04T14:25:47.250Z,54.22
2022-12-04T14:28:28.418Z,55.30
2022-12-04T14:31:09.337Z,56.75
2022-12-04T14:33:54.829Z,53.90
2022-12-04T14:36:34.416Z,59.20
2022-12-04T14:39:20.177Z,56.10
2022-12-04T14:41:47.496Z,58.15
2022-12-04T14:44:31.170Z,57.95
2022-12-04T14:47:07.525Z,56.38
2022-12-04T14:50:03.166Z,58.45
2022-12-04T14:52:39.818Z,57.22
2022-12-04T14:55:32.026Z,55.13
2022-12-04T14:58:25.050Z,55.40
2022-12-04T15:00:54.126Z,61.90
2022-12-04T15:03:22.132Z,62.37
2022-12-04T15:05:50.984Z,57.63
2022-12-04T15:08:20.292Z,56.85
2022-12-04T15:11:09.263Z,51.13
2022-12-04T15:13:37.756Z,56.63
2022-12-04T15:16:20.745Z,59.05
2022-12-04T15:18:59.223Z,52.17
2022-12-04T15:21:44.626Z,54.33
2022-12-04T15:24:23.536Z,52.85
2022-12-04T15:26:53.460Z,60.08
2022-12-04T15:29:23.609Z,56.50
2022-12-04T15:34:30.651Z,53.47
2022-12-04T15:37:14.395Z,55.13
2022-12-04T15:39:41.871Z,54.80
2022-12-04T15:42:18.114Z,55.78
2022-12-04T15:45:01.680Z,51.47
2022-12-04T15:47:37.564Z,57.85
2022-12-04T15:50:21.981Z,58.20
2022-12-04T15:53:03.925Z,59.47
2022-12-04T15:55:34.155Z,56.25
2022-12-04T15:58:27.774Z,56.40
2022-12-04T16:01:07.199Z,57.35
2022-12-04T16:03:51.481Z,58.83
2022-12-04T16:06:23.416Z,59.35
2022-12-04T16:08:56.059Z,58.80
2022-12-04T16:11:44.016Z,58.42
2022-12-04T16:14:11.239Z,58.83
2022-12-04T16:16:47.823Z,60.40
2022-12-04T16:19:18.068Z,58.47
2022-12-04T16:21:45.366Z,60.15
2022-12-04T16:24:14.104Z,58.25
2022-12-04T16:26:41.810Z,60.72
2022-12-04T16:29:09.227Z,58.90
2022-12-04T16:31:37.799Z,58.33
2022-12-04T16:34:05.135Z,57.63
2022-12-04T16:36:32.580Z,53.92
2022-12-04T16:38:59.987Z,60.53
2022-12-04T16:41:27.326Z,61.15
2022-12-04T16:43:57.154Z,60.42
2022-12-04T16:46:26.034Z,57.38
2022-12-04T16:48:53.737Z,58.55
2022-12-04T16:51:25.920Z,57.58
2022-12-04T16:53:54.445Z,60.08
2022-12-04T16:56:21.781Z,58.90
2022-12-04T16:58:49.448Z,58.88
2022-12-04T17:01:21.617Z,55.65
2022-12-04T17:03:49.354Z,54.60
2022-12-04T17:06:17.001Z,55.10
2022-12-04T17:08:44.943Z,52.78
2022-12-04T17:11:13.584Z,56.05
2022-12-04T17:13:41.104Z,53.25
2022-12-04T17:16:09.083Z,54.25
2022-12-04T17:18:36.535Z,51.70
2022-12-04T17:21:07.545Z,53.05
2022-12-04T17:23:34.884Z,52.80
2022-12-04T17:26:07.210Z,54.55
2022-12-04T17:28:36.429Z,51.53
2022-12-04T17:31:06.042Z,50.40
2022-12-04T17:33:33.291Z,51.58
2022-12-04T17:36:00.562Z,48.42
2022-12-04T17:38:28.194Z,45.88
2022-12-04T17:41:00.324Z,48.05
2022-12-04T17:43:32.091Z,47.90
2022-12-04T17:45:59.392Z,47.05
2022-12-04T17:48:27.551Z,52.47
2022-12-04T17:51:12.966Z,49.35
2022-12-04T17:53:40.577Z,46.65
2022-12-04T17:56:12.037Z,47.53
2022-12-04T17:58:39.487Z,46.95
2022-12-04T18:01:09.107Z,53.75
2022-12-04T18:03:37.022Z,47.95
2022-12-04T18:06:13.352Z,51.65
2022-12-04T18:08:44.081Z,50.58
2022-12-04T18:11:15.937Z,53.08
2022-12-04T18:13:43.253Z,46.42
2022-12-04T18:16:11.402Z,46.83
2022-12-04T18:18:39.099Z,48.58
2022-12-04T18:21:09.453Z,50.58
2022-12-04T18:23:45.570Z,48.35
2022-12-04T18:26:18.650Z,50.30
2022-12-04T18:28:46.697Z,48.90
2022-12-04T18:31:15.465Z,46.30
2022-12-04T18:33:43.691Z,48.30
2022-12-04T18:36:14.450Z,46.42
2022-12-04T18:38:41.867Z,48.78
2022-12-04T18:41:10.859Z,46.40
2022-12-04T18:43:43.743Z,51.30
2022-12-04T18:46:13.930Z,48.90
2022-12-04T18:48:43.449Z,51.13
2022-12-04T18:51:35.317Z,48.55
2022-12-04T18:54:18.150Z,47.35
2022-12-04T18:56:45.671Z,48.33
2022-12-04T18:59:17.925Z,50.67
2022-12-04T19:01:49.830Z,52.70
2022-12-04T19:04:18.689Z,48.60
2022-12-04T19:06:48.499Z,50.95
2022-12-04T19:09:18.584Z,46.38
2022-12-04T19:14:22.681Z,44.92
2022-12-04T19:16:51.490Z,49.60
2022-12-04T19:19:19.077Z,48.33
2022-12-04T19:21:46.331Z,47.63
2022-12-04T19:24:14.086Z,47.90
2022-12-04T19:26:41.564Z,46.92
2022-12-04T19:29:09.514Z,46.58
2022-12-04T19:31:37.814Z,50.47
2022-12-04T19:34:06.337Z,52.80
2022-12-04T19:36:35.094Z,47.88
2022-12-04T19:39:05.399Z,47.83
2022-12-04T19:41:37.384Z,49.65
2022-12-04T19:44:19.946Z,46.15
2022-12-04T19:46:52.336Z,48.03
2022-12-04T19:49:19.790Z,52.92
2022-12-04T19:51:48.349Z,52.35
2022-12-04T19:54:16.042Z,52.03
2022-12-04T19:56:46.112Z,51.17
2022-12-04T19:59:13.423Z,47.55
2022-12-04T20:01:41.160Z,48.72
2022-12-04T20:04:09.103Z,49.65
2022-12-04T20:06:38.878Z,49.47
2022-12-04T20:09:08.780Z,53.08
2022-12-04T20:14:04.716Z,51.78
2022-12-04T20:16:33.421Z,46.22
2022-12-04T20:19:02.301Z,51.05
2022-12-04T20:21:31.939Z,48.22
2022-12-04T20:24:02.644Z,43.88
2022-12-04T20:26:35.792Z,44.28
2022-12-04T20:29:03.919Z,44.65
2022-12-04T20:31:33.818Z,47.72
2022-12-04T20:34:02.778Z,45.53
2022-12-04T20:36:31.148Z,48.33
2022-12-04T20:38:59.403Z,45.70
2022-12-04T20:41:28.442Z,43.47
2022-12-04T20:43:58.780Z,47.10
2022-12-04T20:46:32.207Z,45.38
2022-12-04T20:49:01.444Z,47.90
2022-12-04T20:51:31.684Z,46.53
2022-12-04T20:53:59.949Z,45.10
2022-12-04T20:56:33.148Z,49.03
2022-12-04T20:59:03.131Z,43.70
2022-12-04T21:03:58.917Z,45.72
2022-12-04T21:06:35.996Z,45.50
2022-12-04T21:09:10.108Z,49.28
2022-12-04T21:11:42.846Z,44.80
2022-12-04T21:14:40.391Z,45.20
2022-12-04T21:17:10.990Z,46.50
2022-12-04T21:19:38.359Z,48.40
2022-12-04T21:22:05.835Z,43.72
2022-12-04T21:24:38.317Z,47.80
2022-12-04T21:27:07.802Z,45.17
2022-12-04T21:29:36.684Z,54.95
2022-12-04T21:32:05.622Z,46.05
2022-12-04T21:34:33.501Z,49.72
2022-12-04T21:37:00.941Z,45.75
2022-12-04T21:39:28.247Z,42.95
2022-12-04T21:42:14.168Z,45.63
2022-12-04T21:44:41.484Z,45.28
2022-12-04T21:47:08.848Z,45.30
2022-12-04T21:49:36.164Z,44.65
2022-12-04T21:52:03.427Z,43.10
2022-12-04T21:54:30.915Z,43.78
2022-12-04T21:56:58.217Z,45.90
2022-12-04T21:59:25.957Z,46.40
2022-12-04T22:01:54.012Z,47.45
2022-12-04T22:04:21.766Z,46.03
2022-12-04T22:06:49.532Z,47.45
2022-12-04T22:09:16.968Z,46.42
2022-12-04T22:11:44.672Z,45.55
2022-12-04T22:14:12.867Z,43.85
2022-12-04T22:16:42.696Z,43.50
2022-12-04T22:19:13.771Z,44.33
2022-12-04T22:21:41.439Z,43.17
2022-12-04T22:24:10.556Z,43.40
2022-12-04T22:26:38.796Z,44.45
2022-12-04T22:29:27.155Z,44.08
2022-12-04T22:31:54.256Z,47.83
2022-12-04T22:34:21.694Z,45.88
2022-12-04T22:36:49.183Z,46.75
2022-12-04T22:39:16.516Z,45.90
2022-12-04T22:41:43.816Z,43.65
2022-12-04T22:44:11.094Z,41.55
2022-12-04T22:46:38.504Z,41.83
2022-12-04T22:49:05.923Z,49.35
2022-12-04T22:51:33.248Z,45.38
2022-12-04T22:54:00.612Z,44.85
2022-12-04T22:56:31.262Z,45.58
2022-12-04T22:58:59.535Z,43.53
2022-12-04T23:01:28.920Z,44.22
2022-12-04T23:03:56.648Z,45.08
2022-12-04T23:06:26.752Z,45.50
2022-12-04T23:08:55.970Z,48.25
2022-12-04T23:11:24.131Z,43.55
2022-12-04T23:13:56.672Z,46.30
2022-12-04T23:16:24.821Z,42.78
2022-12-04T23:18:52.445Z,41.95
2022-12-04T23:21:21.375Z,42.10
2022-12-04T23:23:51.392Z,44.90
2022-12-04T23:28:47.215Z,40.17
2022-12-04T23:31:14.951Z,42.67
2022-12-04T23:33:42.400Z,39.42
2022-12-04T23:36:11.532Z,44.08
2022-12-04T23:38:40.195Z,41.67
2022-12-04T23:41:15.466Z,42.17
2022-12-04T23:43:43.468Z,43.95
2022-12-04T23:46:12.383Z,39.92
2022-12-04T23:48:40.928Z,43.97
2022-12-04T23:51:09.423Z,44.05
2022-12-04T23:53:37.127Z,40.28
2022-12-04T23:56:20.973Z,41.10
2022-12-04T23:58:49.641Z,42.22
